Map

Track Data

SID SEASON NUMBER BASIN SUBBASIN NAME ISO_TIME NATURE LAT LON WMO_WIND WMO_PRES WMO_AGENCY TRACK_TYPE DIST2LAND LANDFALL IFLAG USA_AGENCY USA_ATCF_ID USA_LAT USA_LON USA_RECORD USA_STATUS USA_WIND USA_PRES USA_SSHS USA_R34_NE USA_R34_SE USA_R34_SW USA_R34_NW USA_R50_NE USA_R50_SE USA_R50_SW USA_R50_NW USA_R64_NE USA_R64_SE USA_R64_SW USA_R64_NW USA_POCI USA_ROCI USA_RMW USA_EYE TOKYO_LAT TOKYO_LON TOKYO_GRADE TOKYO_WIND TOKYO_PRES TOKYO_R50_DIR TOKYO_R50_LONG TOKYO_R50_SHORT TOKYO_R30_DIR TOKYO_R30_LONG TOKYO_R30_SHORT TOKYO_LAND CMA_LAT CMA_LON CMA_CAT CMA_WIND CMA_PRES HKO_LAT HKO_LON HKO_CAT HKO_WIND HKO_PRES NEWDELHI_LAT NEWDELHI_LON NEWDELHI_GRADE NEWDELHI_WIND NEWDELHI_PRES NEWDELHI_CI NEWDELHI_DP NEWDELHI_POCI REUNION_LAT REUNION_LON REUNION_TYPE REUNION_WIND REUNION_PRES REUNION_TNUM REUNION_CI REUNION_RMW REUNION_R34_NE REUNION_R34_SE REUNION_R34_SW REUNION_R34_NW REUNION_R50_NE REUNION_R50_SE REUNION_R50_SW REUNION_R50_NW REUNION_R64_NE REUNION_R64_SE REUNION_R64_SW REUNION_R64_NW BOM_LAT BOM_LON BOM_TYPE BOM_WIND BOM_PRES BOM_TNUM BOM_CI BOM_RMW BOM_R34_NE BOM_R34_SE BOM_R34_SW BOM_R34_NW BOM_R50_NE BOM_R50_SE BOM_R50_SW BOM_R50_NW BOM_R64_NE BOM_R64_SE BOM_R64_SW BOM_R64_NW BOM_ROCI BOM_POCI BOM_EYE BOM_POS_METHOD BOM_PRES_METHOD NADI_LAT NADI_LON NADI_CAT NADI_WIND NADI_PRES WELLINGTON_LAT WELLINGTON_LON WELLINGTON_WIND WELLINGTON_PRES DS824_LAT DS824_LON DS824_STAGE DS824_WIND DS824_PRES TD9636_LAT TD9636_LON TD9636_STAGE TD9636_WIND TD9636_PRES TD9635_LAT TD9635_LON TD9635_WIND TD9635_PRES TD9635_ROCI NEUMANN_LAT NEUMANN_LON NEUMANN_CLASS NEUMANN_WIND NEUMANN_PRES MLC_LAT MLC_LON MLC_CLASS MLC_WIND MLC_PRES USA_GUST BOM_GUST BOM_GUST_PER REUNION_GUST REUNION_GUST_PER USA_SEAHGT USA_SEARAD_NE USA_SEARAD_SE USA_SEARAD_SW USA_SEARAD_NW STORM_SPEED STORM_DIR
1984076S13173 1984 26 SP MM CYRIL 1984-03-16 00:00:00 NR -13.4500 173.150 30 997 wellington main 650 626 ________O_O___ -1 -13.5000 173.600 30 997 -13.4000 172.700 1 5 146
1984076S13173 1984 26 SP MM CYRIL 1984-03-16 03:00:00 NR -13.6408 173.282 main 626 603 ________P_P___ -1 -13.7750 173.706 30 997 -13.5100 172.874 1 5 146
1984076S13173 1984 26 SP MM CYRIL 1984-03-16 06:00:00 NR -13.8398 173.419 main 603 572 ________P_P___ -1 -14.0600 173.820 30 997 -13.6260 173.050 1 5 146
1984076S13173 1984 26 SP MM CYRIL 1984-03-16 09:00:00 NR -14.0553 173.567 main 564 541 ________P_P___ -1 -14.3650 173.949 30 997 -13.7545 173.228 1 5 146
1984076S13173 1984 26 SP MM CYRIL 1984-03-16 12:00:00 NR -14.2956 173.730 30 997 wellington main 541 510 ________O_P___ -1 -14.7000 174.100 30 997 -13.9015 173.410 1 6 147
1984076S13173 1984 26 SP MM CYRIL 1984-03-16 15:00:00 NR -14.5671 173.912 main 502 425 ________P_P___ -1 -15.0713 174.278 30 997 -14.0733 173.597 1 11 140
1984076S13173 1984 26 SP MM CYRIL 1984-03-16 18:00:00 TS -15.1349 174.449 main 425 356 O_______P_P_O_ jtwc_sh SH291984 -16.2000 175.800 25 -1 -15.4701 174.477 30 997 -14.2762 173.790 1 -16.2000 175.800 TC 25 14 140
1984076S13173 1984 26 SP MM CYRIL 1984-03-16 21:00:00 TS -15.6332 174.830 main 356 296 P_______P_P_P_ SH291984 -16.5050 175.840 25 -1 -15.8838 174.688 30 997 -14.5164 173.991 1 -16.5050 175.840 TC 25 12 145
1984076S13173 1984 26 SP MM CYRIL 1984-03-17 00:00:00 TS -16.0857 175.129 30 997 wellington main 296 245 O_______O_O_O_ jtwc_sh SH291984 -16.8000 175.900 25 -1 -16.3000 174.900 30 997 -14.8000 174.200 1 -16.8000 175.900 TC 25 10 148
1984076S13173 1984 26 SP MM CYRIL 1984-03-17 03:00:00 TS -16.4946 175.382 main 245 220 P_______P_P_P_ SH291984 -17.0725 175.992 27 -1 -16.6958 175.088 32 995 -15.1303 174.420 1 -17.0725 175.992 TC 27 8 151
1984076S13173 1984 26 SP MM CYRIL 1984-03-17 06:00:00 TS -16.8008 175.550 main 220 188 O_______P_P_O_ jtwc_sh SH291984 -17.3000 176.100 30 -1 -17.0923 175.278 35 993 -15.4983 174.657 1 -17.3000 176.100 TC 30 7 151
1984076S13173 1984 26 SP MM CYRIL 1984-03-17 09:00:00 TS -17.0741 175.713 main 188 158 P_______P_P_P_ SH291984 -17.4500 176.200 30 -1 -17.4926 175.479 37 991 -15.8922 174.915 1 -17.4500 176.200 TC 30 6 150
1984076S13173 1984 26 SP MM CYRIL 1984-03-17 12:00:00 TS -17.3500 175.875 40 990 wellington main 158 131 O_______O_O_O_ jtwc_sh SH291984 -17.6000 176.300 30 -1 -17.9000 175.700 40 990 -16.3000 175.200 2 45 -17.6000 176.300 TC 30 7 153
1984076S13173 1984 26 SP MM CYRIL 1984-03-17 15:00:00 TS -17.7220 176.053 main 121 95 P_______P___P_ SH291984 -17.8124 176.370 32 -1 -18.3297 175.929 41 989 2 -17.8124 176.370 TC 32 9 155
1984076S13173 1984 26 SP MM CYRIL 1984-03-17 18:00:00 TS -18.1388 176.269 main 95 86 O_______P___O_ jtwc_sh SH291984 -18.1000 176.500 35 0 -18.7645 176.183 42 988 2 -18.1000 176.500 TC 35 10 151
1984076S13173 1984 26 SP MM CYRIL 1984-03-17 21:00:00 TS -18.6112 176.573 main 92 92 P_______P___P_ SH291984 -18.4699 176.740 35 0 -19.1921 176.470 43 987 2 -18.4699 176.740 TC 35 12 145
1984076S13173 1984 26 SP MM CYRIL 1984-03-18 00:00:00 TS -19.1333 177.000 45 987 wellington main 116 116 O_______O___O_ jtwc_sh SH291984 -18.9000 177.100 35 0 -19.6000 176.800 45 987 2 -18.9000 177.100 TC 35 12 140
1984076S13173 1984 26 SP MM CYRIL 1984-03-18 03:00:00 TS -19.5499 177.412 main 144 144 P_______P___P_ SH291984 -19.3500 177.562 35 0 -19.9498 177.111 45 987 2 -19.3500 177.562 TC 35 12 135
1984076S13173 1984 26 SP MM CYRIL 1984-03-18 06:00:00 TS -19.9608 177.891 main 190 190 O_______P___O_ jtwc_sh SH291984 -19.8000 178.100 35 0 -20.2825 177.474 45 987 2 -19.8000 178.100 TC 35 12 131
1984076S13173 1984 26 SP MM CYRIL 1984-03-18 09:00:00 TS -20.3463 178.403 main 224 224 P_______P___P_ SH291984 -20.2074 178.643 35 0 -20.6240 177.924 45 987 2 -20.2074 178.643 TC 35 13 127
1984076S13173 1984 26 SP MM CYRIL 1984-03-18 12:00:00 TS -20.7333 178.967 45 987 wellington main 281 281 O_______O___O_ jtwc_sh SH291984 -20.6000 179.200 35 0 -21.0000 178.500 45 987 2 -20.6000 179.200 TC 35 14 127
1984076S13173 1984 26 SP MM CYRIL 1984-03-18 15:00:00 TS -21.1742 179.586 main 355 355 P_______P___P_ SH291984 -21.0222 179.735 37 0 -21.4784 179.287 43 987 2 -21.0222 179.735 TC 37 15 125
1984076S13173 1984 26 SP MM CYRIL 1984-03-18 18:00:00 TS -21.5947 180.264 main 425 425 O_______P___O_ jtwc_sh SH291984 -21.4000 -179.700 40 0 -21.9840 -179.807 42 988 2 -21.4000 -179.700 TC 40 15 120
1984076S13173 1984 26 SP MM CYRIL 1984-03-18 21:00:00 TS -21.9441 181.004 main 488 488 P_______P___P_ SH291984 -21.6800 -179.057 40 0 -22.4722 -178.872 41 989 2 -21.6800 -179.057 TC 40 15 115
1984076S13173 1984 26 SP MM CYRIL 1984-03-19 00:00:00 TS -22.2333 181.733 40 990 wellington main 555 555 O_______O___O_ jtwc_sh SH291984 -21.9000 -178.400 40 0 -22.9000 -178.000 40 990 2 -21.9000 -178.400 TC 40 14 112
1984076S13173 1984 26 SP MM CYRIL 1984-03-19 03:00:00 TS -22.4593 182.376 main 625 625 P_______P___P_ SH291984 -22.0848 -177.784 40 0 -23.2085 -177.302 38 991 2 -22.0848 -177.784 TC 40 12 112
1984076S13173 1984 26 SP MM CYRIL 1984-03-19 06:00:00 TS -22.6858 182.972 main 682 682 O_______P___O_ jtwc_sh SH291984 -22.3000 -177.200 40 0 -23.4574 -176.684 37 992 2 -22.3000 -177.200 TC 40 994 12 115
1984076S13173 1984 26 SP MM CYRIL 1984-03-19 09:00:00 TS -22.9675 183.535 main 741 741 P_______P___P_ SH291984 -22.6123 -176.635 40 0 -23.6777 -176.124 36 993 2 -22.6123 -176.635 TC 40 12 121
1984076S13173 1984 26 SP MM CYRIL 1984-03-19 12:00:00 TS -23.3000 184.067 35 995 wellington main 808 808 O_______O___O_ jtwc_sh SH291984 -23.0000 -176.100 40 0 -23.9000 -175.600 35 995 2 -23.0000 -176.100 TC 40 12 126
1984076S13173 1984 26 SP MM CYRIL 1984-03-19 15:00:00 TS -23.6656 184.575 main 875 875 P_______P___P_ SH291984 -23.4271 -175.607 37 0 -24.1426 -175.062 33 995 2 -23.4271 -175.607 TC 37 12 129
1984076S13173 1984 26 SP MM CYRIL 1984-03-19 18:00:00 TS -24.0655 185.082 main 943 943 O_______P___O_ jtwc_sh SH291984 -23.9000 -175.100 35 0 -24.3965 -174.553 32 996 2 -23.9000 -175.100 TC 35 12 132
1984076S13173 1984 26 SP MM CYRIL 1984-03-19 21:00:00 TS -24.4730 185.567 main 1010 1010 P_______P___P_ SH291984 -24.3923 -174.522 35 0 -24.6772 -174.068 31 996 2 -24.3923 -174.522 TC 35 13 130
1984076S13173 1984 26 SP MM CYRIL 1984-03-20 00:00:00 TS -24.9077 186.192 30 997 wellington main 1085 1085 O_______O_O_O_ jtwc_sh SH291984 -24.9000 -173.900 35 0 -25.0000 -173.600 30 997 -24.6000 -173.900 2 -24.9000 -173.900 TC 35 15 129
1984076S13173 1984 26 SP MM CYRIL 1984-03-20 03:00:00 TS -25.3994 186.812 main 1167 1167 P_______P___P_ SH291984 -25.4002 -173.227 35 0 -25.3980 -173.108 30 997 2 -25.4002 -173.227 TC 35 15 132
1984076S13173 1984 26 SP MM CYRIL 1984-03-20 06:00:00 TS -25.8783 187.389 main 1249 1249 O_______P___O_ jtwc_sh SH291984 -25.9000 -172.600 35 0 -25.8350 -172.634 30 997 2 -25.9000 -172.600 TC 35 14 135
1984076S13173 1984 26 SP MM CYRIL 1984-03-20 09:00:00 TS -26.3646 187.876 main 1324 1324 P_______P___P_ SH291984 -26.4073 -172.090 35 0 -26.2794 -172.192 30 997 2 -26.4073 -172.090 TC 35 12 140
1984076S13173 1984 26 SP MM CYRIL 1984-03-20 12:00:00 TS -26.8200 188.260 30 997 wellington main 1383 1383 O_______O___O_ jtwc_sh SH291984 -26.9000 -171.700 35 0 -26.7000 -171.800 30 997 2 -26.9000 -171.700 TC 35 10 144
1984076S13173 1984 26 SP MM CYRIL 1984-03-20 15:00:00 TS -27.2127 188.561 main 1436 1436 P_______P___P_ SH291984 -27.3601 -171.420 32 -1 -27.0653 -171.457 30 997 2 -27.3601 -171.420 TC 32 9 145
1984076S13173 1984 26 SP MM CYRIL 1984-03-20 18:00:00 TS -27.5345 188.823 main 1473 1473 O_______P___O_ jtwc_sh SH291984 -27.8000 -171.200 30 -1 -27.4018 -171.166 30 997 2 -27.8000 -171.200 TC 30 7 137
1984076S13173 1984 26 SP MM CYRIL 1984-03-20 21:00:00 NR -27.7124 189.083 main 1482 1469 ________P_____ SH291984 -1 -27.7124 -170.917 30 997 2 TC 6 138
1984076S13173 1984 26 SP MM CYRIL 1984-03-21 00:00:00 NR -28.0000 189.300 30 997 wellington main 1469 1456 ________O_____ -1 -28.0000 -170.700 30 997 2 7 147
1984076S13173 1984 26 SP MM CYRIL 1984-03-21 03:00:00 NR -28.2678 189.494 main 1456 1446 ________P_____ -1 -28.2678 -170.506 30 997 2 6 148
1984076S13173 1984 26 SP MM CYRIL 1984-03-21 06:00:00 NR -28.5203 189.672 main 1452 1443 ________P_____ -1 -28.5203 -170.328 30 997 2 6 149
1984076S13173 1984 26 SP MM CYRIL 1984-03-21 09:00:00 NR -28.7628 189.838 main 1435 1432 ________P_____ -1 -28.7628 -170.162 30 997 2 6 149
1984076S13173 1984 26 SP MM CYRIL 1984-03-21 12:00:00 NR -29.0000 190.000 30 997 wellington main 1432 ________O_____ -1 -29.0000 -170.000 30 997 2 6 149

Digital Typhoon Data and Search

About IBTrACS Database

This database is a web-friendly format of International Best Track Archive for Climate Stewardship (IBTrACS), a global best track data archive curated by NOAA dating back to 1842.

Updated: 2021-11-26